FMSTFMNA

Guest
Details From FMST - Toliara
To FMNA - Arrachart
Flight Number -
Tags Generated
Created
Modified
Stats Distance 735 nm / 1,362 km
Max Altitude 0 ft / 0 m
Waypoints 2
Social Downloads 0
Likes 0
Share VATSIM

Download

Looking for another format? Having issues loading an existing format? Contact us
Advertisement - Login to hide

Notes

Generated

Route

FMST FMNA

ID Type Via Altitude Latitude Longitude Leg Dist Tot Dist Heading (true) Name
O FMST APT - 0 ft / 0 m -23.39136˚ 43.72490˚ - 0 nm - -
O FMNA APT - 0 ft / 0 m -12.34562˚ 49.28606˚ 735 nm 735 nm 27° / 25° ARRACHART

Altitude Profile

Advertisement - Login to hide

Weather


0- 5 10 15 20 25 30 35+ Temperature / ° C

Clouds and Precipitation
Forecast for 2018-05-28 00:00 UTC. Updated 7 hours ago

Ground ~20,000 ft ~40,000 ft Winds

FMST

Details ICAO FMST (TLE)
Name TOLIARA
Region Comoros, Mayotte, Réunion and Madagascar
Timezone Indian/Antananarivo (UTC+3.0)
Stats Elevation 29 ft / 9 m (AMSL)
Location -23.387333° 43.728634°
Runways 2
Magnetic Variation 20.493° W

METAR

Not found

TAF

TAF FMST 272300Z 2800/2824 12005KT 9999 FEW020 SCT040 BECMG 2810/2812 20012KT

Decode

Departure Runways

ID Width Length Bearing (true) Bearing (mag) Surface Threshold Offset Overrun Length
04 98 ft / 30 m 6,583 ft / 2,007 m 23.34° 43.83° Asphalt 0 ft / 0 m 100 ft / 30 m
11 42 ft / 13 m 2,624 ft / 800 m 89.07° 109.56° Asphalt 0 ft / 0 m 0 ft / 0 m
22 98 ft / 30 m 6,583 ft / 2,007 m 203.34° 223.83° Asphalt 0 ft / 0 m 100 ft / 30 m
29 42 ft / 13 m 2,624 ft / 800 m 269.07° 289.56° Asphalt 0 ft / 0 m 0 ft / 0 m

FMNA

Details ICAO FMNA (DIE)
Name ARRACHART
Region Comoros, Mayotte, Réunion and Madagascar
Timezone Indian/Antananarivo (UTC+3.0)
Stats Elevation 374 ft / 114 m (AMSL)
Location -12.349400° 49.291747°
Runways 1
Magnetic Variation 8.870° W

METAR

Not found

TAF

TAF FMNA 272300Z 2800/2824 14014KT 9999 SCT020

Decode

Destination Runways

ID Width Length Bearing (true) Bearing (mag) Surface Threshold Offset Overrun Length
13 98 ft / 30 m 4,907 ft / 1,496 m 124.22° 133.09° Asphalt 0 ft / 0 m 100 ft / 30 m
31 98 ft / 30 m 4,907 ft / 1,496 m 304.22° 313.09° Asphalt 0 ft / 0 m 100 ft / 30 m